North Island Naval Air Station-Halsey Field
KNZY : rendu visible

Aérodrome :











RETROUVEZ-NOUS SUR...

 
LOGIN :

S'inscrire | Disclaimer

   EN    FR    IT 

 









Légende :    VFR   VFR Marginal   IFR   IFR Intensif   IFR Très Intensif
Visi : 
Plafond : 
>= 8 km
>= 3000ft
5 à 8 km
1000 à 3000 ft
1500m à 5 km
500 à 1000 ft
800 à 1500m
200 à 500 ft
< 800m
< 200 ft
Symboles :   Orages  Brouillard  Fortes neiges  Fortes précipitations  Vent > 20 kt






- Altitude de l'aérodrome : 26 ft


KNZY - North Island Naval Air Station-Halsey Field

DERNIER METAR :
  • 240552Z 15006KT 8SM BKN025 BKN250 16/13 A2996 RMK AO2 SLP144 T01560128 10172 20144 53007

METARs EXPIRÉS :
  • 240452Z 15005KT 8SM BKN025 BKN250 15/11 A2995 RMK AO2 SLP141 T01500111
  • 240352Z 12003KT 8SM BKN024 BKN250 16/12 A2994 RMK AO2 SLP138 T01560117

TAF TAF KNZY
Valide du 23 à 23h jusqu'au 24 à 23h UTC


2323/2423 22009KT 9999 SCT025 BKN250 521609 522509 QNH2983INS
FM240200 VRB06KT 9999 FEW018 BKN025 BKN250 521609 522509 QNH2986INS
FM240800 VRB06KT 9999 FEW020 BKN032 BKN250 521609 522509 QNH2995INS
FM241700 20008KT 9999 BKN030 500000 QNH2998INS
TEMPO 2418/2423 26010KT SCT028 SCT250 T13/2413Z T19/2421Z FS30103
FIR KZLA / Amérique du Nord



MET'MAP, la Météo Aéronautique d'un coup d'oeil ! - Copyright ORBIFLY Décembre 2007 - Disclaimer

ORBIFLY MET'MAP TEAM :

Programmation & Développement : Alexandra Zaïnal
Sur une idée originale de : Baudouin d'Aumeries
Assistance à la programmation : Marc-Olivier Méhu
Soutien technique & logistique : Manuel Goepfert

Contact : metmap@orbifly.com




SOURCES & CREDITS :

   NOAA       Earth
Advisory